Airport View

Enter AWOS ICAO identifier for current METAR.

ex. KFNL

KDYB 191910Z AUTO 27008G14KT 240V300 10SM CLR 16/06 A2993 RMK AO2

19 Jan 2020 19:14

Frequency: 119.575

Phone: 843-821-8403

Other Area AWOS: KMKS - KCHS - KRBW - KJZI

TAF KCHS 191808Z 1918/2018 29012G19KT P6SM SCT025 BKN200 FM192300 30009KT P6SM FEW040 FM200600 36011KT P6SM SKC